Time;durP1;ratioP1;P1;durP2;ratioP2;P2;SDS_P1;SDS_P2;PMS_P1;PMS_P2;Temp;Humidity;BMP_temperature;BMP_pressure;BME280_temperature;BME280_humidity;BME280_pressure;Samples;Min_cycle;Max_cycle;Signal;HPM_P1;HPM_P2
2023/11/07 00:01:33;;;;;;;0.67;0.47;;;;;;;;;;5017649;28;20427;-80
2023/11/07 00:04:00;;;;;;;0.77;0.50;;;;;;;;;;5017225;28;20393;-82
2023/11/07 00:06:26;;;;;;;1.17;0.70;;;;;;;;;;5016438;28;20407;-82
2023/11/07 00:08:53;;;;;;;0.88;0.82;;;;;;;;;;5031282;28;20407;-82
2023/11/07 00:11:19;;;;;;;3.22;0.60;;;;;;;;;;5016883;28;20891;-82
2023/11/07 00:13:45;;;;;;;0.65;0.52;;;;;;;;;;5016820;28;20728;-82
2023/11/07 00:16:11;;;;;;;0.88;0.73;;;;;;;;;;5016568;28;20768;-82
2023/11/07 00:18:37;;;;;;;1.58;0.80;;;;;;;;;;5017015;28;20403;-82
2023/11/07 00:21:03;;;;;;;0.77;0.65;;;;;;;;;;5017926;28;20381;-80
2023/11/07 00:23:29;;;;;;;1.77;0.75;;;;;;;;;;5025969;28;20410;-82
2023/11/07 00:25:55;;;;;;;0.70;0.38;;;;;;;;;;5037667;28;20391;-80
2023/11/07 00:28:21;;;;;;;1.60;0.60;;;;;;;;;;5038087;28;20387;-80
2023/11/07 00:30:48;;;;;;;0.50;0.50;;;;;;;;;;5037213;28;20383;-80
2023/11/07 00:33:14;;;;;;;1.15;0.60;;;;;;;;;;5038131;28;20402;-80
2023/11/07 00:35:44;;;;;;;0.80;0.70;;;;;;;;;;5036484;28;20447;-80
2023/11/07 00:38:10;;;;;;;0.70;0.50;;;;;;;;;;5036947;28;21307;-80
2023/11/07 00:40:36;;;;;;;1.90;0.40;;;;;;;;;;5037198;28;20445;-80
2023/11/07 00:43:03;;;;;;;0.50;0.50;;;;;;;;;;5036881;28;20395;-80
2023/11/07 00:45:29;;;;;;;0.88;0.50;;;;;;;;;;5034185;28;20383;-80
2023/11/07 00:47:56;;;;;;;0.50;0.50;;;;;;;;;;5037288;28;20398;-80
2023/11/07 00:50:22;;;;;;;0.43;0.43;;;;;;;;;;5037240;28;20383;-80
2023/11/07 00:52:49;;;;;;;0.75;0.50;;;;;;;;;;5037573;28;20510;-80
2023/11/07 00:55:15;;;;;;;0.57;0.50;;;;;;;;;;5037778;28;20953;-80
2023/11/07 00:57:42;;;;;;;0.70;0.60;;;;;;;;;;5037818;28;20429;-80
2023/11/07 01:00:08;;;;;;;1.20;0.80;;;;;;;;;;5037300;28;20783;-80
2023/11/07 01:02:34;;;;;;;1.10;0.83;;;;;;;;;;5037625;28;20440;-80
2023/11/07 01:05:00;;;;;;;0.60;0.60;;;;;;;;;;5037217;28;20394;-80
2023/11/07 01:07:26;;;;;;;0.50;0.50;;;;;;;;;;5037072;28;20383;-80
2023/11/07 01:09:52;;;;;;;2.03;0.60;;;;;;;;;;5037464;28;20457;-80
2023/11/07 01:12:18;;;;;;;0.90;0.40;;;;;;;;;;5037308;28;20447;-80
2023/11/07 01:14:44;;;;;;;0.50;0.50;;;;;;;;;;5036916;28;20410;-80
2023/11/07 01:17:11;;;;;;;1.50;0.40;;;;;;;;;;5036604;28;20418;-80
2023/11/07 01:19:37;;;;;;;0.88;0.60;;;;;;;;;;5037090;28;20411;-80
2023/11/07 01:22:04;;;;;;;5.80;0.60;;;;;;;;;;5037159;28;20414;-80
2023/11/07 01:24:30;;;;;;;0.50;0.50;;;;;;;;;;5036761;28;20465;-80
2023/11/07 01:26:56;;;;;;;0.57;0.50;;;;;;;;;;5037588;28;20410;-80
2023/11/07 01:29:22;;;;;;;0.90;0.50;;;;;;;;;;5037195;28;20492;-80
2023/11/07 01:31:49;;;;;;;0.55;0.47;;;;;;;;;;5036761;28;20418;-80
2023/11/07 01:34:15;;;;;;;1.10;0.70;;;;;;;;;;5036536;28;20431;-80
2023/11/07 01:36:41;;;;;;;2.13;0.63;;;;;;;;;;5036052;28;20532;-80
2023/11/07 01:39:08;;;;;;;0.60;0.60;;;;;;;;;;5036248;28;20383;-80
2023/11/07 01:41:34;;;;;;;0.70;0.50;;;;;;;;;;5036610;28;20379;-80
2023/11/07 01:44:00;;;;;;;0.80;0.47;;;;;;;;;;5032287;28;20395;-80
2023/11/07 01:46:27;;;;;;;0.80;0.50;;;;;;;;;;5016696;28;20400;-80
2023/11/07 01:48:54;;;;;;;1.37;0.60;;;;;;;;;;5016783;28;20415;-80
2023/11/07 01:51:20;;;;;;;0.63;0.60;;;;;;;;;;5017050;28;20416;-80
2023/11/07 01:53:47;;;;;;;0.80;0.80;;;;;;;;;;5016967;28;20389;-80
2023/11/07 01:56:13;;;;;;;0.80;0.80;;;;;;;;;;5021120;28;20435;-80
2023/11/07 01:58:39;;;;;;;0.95;0.75;;;;;;;;;;5020712;28;20399;-80
2023/11/07 02:01:05;;;;;;;0.90;0.90;;;;;;;;;;5035755;28;20423;-80
2023/11/07 02:03:32;;;;;;;1.13;1.02;;;;;;;;;;5032948;28;20419;-81
2023/11/07 02:05:58;;;;;;;1.25;1.15;;;;;;;;;;5032859;28;20390;-81
2023/11/07 02:08:25;;;;;;;1.30;1.20;;;;;;;;;;5032399;28;20455;-81
2023/11/07 02:10:51;;;;;;;1.10;1.00;;;;;;;;;;5032738;28;20448;-80
2023/11/07 02:13:17;;;;;;;1.52;1.20;;;;;;;;;;5032554;28;20749;-81
2023/11/07 02:15:44;;;;;;;1.75;1.50;;;;;;;;;;5032945;28;20391;-81
2023/11/07 02:18:10;;;;;;;1.33;1.23;;;;;;;;;;5033334;28;20391;-81
2023/11/07 02:20:36;;;;;;;1.20;1.00;;;;;;;;;;5033138;28;20437;-81
2023/11/07 02:23:09;;;;;;;1.30;1.20;;;;;;;;;;5026135;28;20387;-81
2023/11/07 02:25:38;;;;;;;1.55;1.00;;;;;;;;;;5033559;28;20824;-81
2023/11/07 02:28:04;;;;;;;1.50;1.00;;;;;;;;;;5034185;28;20439;-81
2023/11/07 02:30:30;;;;;;;1.70;1.10;;;;;;;;;;5034306;28;20846;-80
2023/11/07 02:32:57;;;;;;;2.67;1.00;;;;;;;;;;5034387;28;20457;-80
2023/11/07 02:35:23;;;;;;;2.22;1.92;;;;;;;;;;5033895;28;20407;-81
2023/11/07 02:37:49;;;;;;;9.52;8.57;;;;;;;;;;5034085;28;20784;-81
2023/11/07 02:40:16;;;;;;;2.95;2.55;;;;;;;;;;5033440;28;20383;-81
2023/11/07 02:42:42;;;;;;;3.17;2.80;;;;;;;;;;5034493;28;20406;-81
2023/11/07 02:45:08;;;;;;;2.20;1.90;;;;;;;;;;5033824;28;20385;-80
2023/11/07 02:47:34;;;;;;;1.70;1.25;;;;;;;;;;5033738;28;20379;-81
2023/11/07 02:50:00;;;;;;;1.25;1.15;;;;;;;;;;5033736;28;20402;-81
2023/11/07 02:52:26;;;;;;;2.42;1.60;;;;;;;;;;5033743;28;20466;-80
2023/11/07 02:54:52;;;;;;;2.63;1.60;;;;;;;;;;5033602;28;20398;-82
2023/11/07 02:57:18;;;;;;;1.40;1.20;;;;;;;;;;5033233;28;20387;-81
2023/11/07 02:59:46;;;;;;;1.50;1.27;;;;;;;;;;5033576;28;20918;-81
2023/11/07 03:02:12;;;;;;;1.15;1.05;;;;;;;;;;5037519;28;20413;-81
2023/11/07 03:04:38;;;;;;;1.20;1.10;;;;;;;;;;5036874;28;20905;-81
2023/11/07 03:07:04;;;;;;;1.58;1.40;;;;;;;;;;5037112;28;20422;-81
2023/11/07 03:09:30;;;;;;;1.40;1.30;;;;;;;;;;5019354;28;20433;-81
2023/11/07 03:11:56;;;;;;;1.20;1.10;;;;;;;;;;5034838;28;20422;-80
2023/11/07 03:14:22;;;;;;;2.67;1.20;;;;;;;;;;5036613;28;20936;-81
2023/11/07 03:16:48;;;;;;;1.35;1.10;;;;;;;;;;5017771;28;20463;-80
2023/11/07 03:19:14;;;;;;;1.27;1.17;;;;;;;;;;5036378;28;20923;-81
2023/11/07 03:21:40;;;;;;;1.30;1.10;;;;;;;;;;5019884;28;20391;-80
2023/11/07 03:24:08;;;;;;;1.38;1.02;;;;;;;;;;5037499;28;20415;-81
2023/11/07 03:26:34;;;;;;;1.30;1.10;;;;;;;;;;5038989;28;20809;-81
2023/11/07 03:29:00;;;;;;;1.30;1.20;;;;;;;;;;5039444;28;20881;-80
2023/11/07 03:31:26;;;;;;;1.35;1.20;;;;;;;;;;5038835;28;20419;-80
2023/11/07 03:33:52;;;;;;;1.40;1.30;;;;;;;;;;5038665;28;20430;-81
2023/11/07 03:36:18;;;;;;;1.60;1.20;;;;;;;;;;5039025;28;20433;-81
2023/11/07 03:38:44;;;;;;;1.75;1.05;;;;;;;;;;5038347;28;20470;-81
2023/11/07 03:41:10;;;;;;;1.20;1.10;;;;;;;;;;5038976;28;20410;-81
2023/11/07 03:43:36;;;;;;;1.40;1.30;;;;;;;;;;5038485;28;20406;-81
2023/11/07 03:46:03;;;;;;;1.70;1.30;;;;;;;;;;5038064;28;20482;-81
2023/11/07 03:48:29;;;;;;;1.27;1.17;;;;;;;;;;5038542;28;20399;-81
2023/11/07 03:50:55;;;;;;;1.33;1.23;;;;;;;;;;5034984;28;20439;-81
2023/11/07 03:53:21;;;;;;;1.13;1.02;;;;;;;;;;5038214;28;20401;-81
2023/11/07 03:55:47;;;;;;;2.10;1.08;;;;;;;;;;5037743;28;20393;-81
2023/11/07 03:58:13;;;;;;;1.23;0.98;;;;;;;;;;5038604;28;20394;-81
2023/11/07 04:00:40;;;;;;;1.55;1.05;;;;;;;;;;5038103;28;20768;-81
2023/11/07 04:03:06;;;;;;;2.00;1.20;;;;;;;;;;5037886;28;20402;-81
2023/11/07 04:05:32;;;;;;;1.13;0.82;;;;;;;;;;5037616;28;20376;-80
2023/11/07 04:07:59;;;;;;;1.10;1.00;;;;;;;;;;5034390;28;20407;-80
2023/11/07 04:10:25;;;;;;;1.05;0.90;;;;;;;;;;5036745;28;20417;-81
2023/11/07 04:12:51;;;;;;;1.60;1.08;;;;;;;;;;5037394;28;20974;-81
2023/11/07 04:15:17;;;;;;;1.73;1.00;;;;;;;;;;5038040;28;20407;-81
2023/11/07 04:17:46;;;;;;;1.23;1.08;;;;;;;;;;5036379;28;20395;-80
2023/11/07 04:20:13;;;;;;;3.73;1.00;;;;;;;;;;5037800;28;20375;-81
2023/11/07 04:22:40;;;;;;;1.17;0.98;;;;;;;;;;5038131;28;20888;-81
2023/11/07 04:25:06;;;;;;;1.13;1.02;;;;;;;;;;5037269;28;20439;-81
2023/11/07 04:27:34;;;;;;;1.00;0.93;;;;;;;;;;5037839;28;20391;-81
2023/11/07 04:30:00;;;;;;;1.20;1.10;;;;;;;;;;5037761;28;20418;-81
2023/11/07 04:32:26;;;;;;;1.47;1.10;;;;;;;;;;5037711;28;20468;-81
2023/11/07 04:34:53;;;;;;;1.10;1.00;;;;;;;;;;5037539;28;20383;-81
2023/11/07 04:37:19;;;;;;;1.20;0.98;;;;;;;;;;5037950;28;20391;-81
2023/11/07 04:39:45;;;;;;;1.20;1.10;;;;;;;;;;5037567;28;20391;-81
2023/11/07 04:42:11;;;;;;;1.30;1.20;;;;;;;;;;5037345;28;20387;-81
2023/11/07 04:44:37;;;;;;;2.00;1.70;;;;;;;;;;5037899;28;20698;-81
2023/11/07 04:47:05;;;;;;;1.95;1.80;;;;;;;;;;5038174;28;20391;-81
2023/11/07 04:49:31;;;;;;;3.25;2.40;;;;;;;;;;5037865;28;20390;-81
2023/11/07 04:51:58;;;;;;;2.83;2.10;;;;;;;;;;5037807;28;20461;-80
2023/11/07 04:54:27;;;;;;;2.97;2.67;;;;;;;;;;5037808;28;20529;-81
2023/11/07 04:56:54;;;;;;;2.38;2.05;;;;;;;;;;5037249;28;20520;-81
2023/11/07 04:59:23;;;;;;;2.33;2.20;;;;;;;;;;5037313;28;20386;-81
2023/11/07 05:01:49;;;;;;;3.85;3.55;;;;;;;;;;5037553;28;20389;-81
2023/11/07 05:04:15;;;;;;;5.50;5.00;;;;;;;;;;5037455;28;20391;-81
2023/11/07 05:06:41;;;;;;;3.85;3.55;;;;;;;;;;5037455;28;20403;-81
2023/11/07 05:09:09;;;;;;;5.07;4.65;;;;;;;;;;5037212;28;20384;-81
2023/11/07 05:11:35;;;;;;;5.65;4.68;;;;;;;;;;5037355;28;20811;-81
2023/11/07 05:14:01;;;;;;;5.15;4.75;;;;;;;;;;5035653;28;20879;-81
2023/11/07 05:16:27;;;;;;;4.10;3.80;;;;;;;;;;5037576;28;20387;-80
2023/11/07 05:18:53;;;;;;;1.80;1.30;;;;;;;;;;5035567;28;20390;-80
2023/11/07 05:21:19;;;;;;;1.67;1.58;;;;;;;;;;5033883;28;20391;-80
2023/11/07 05:23:45;;;;;;;1.80;1.70;;;;;;;;;;5033604;28;20387;-81
2023/11/07 05:26:13;;;;;;;2.03;1.80;;;;;;;;;;5033758;28;20395;-81
2023/11/07 05:28:39;;;;;;;2.30;2.10;;;;;;;;;;5033868;28;20383;-80
2023/11/07 05:31:05;;;;;;;2.17;2.08;;;;;;;;;;5034175;28;20390;-80
2023/11/07 05:33:32;;;;;;;2.05;1.90;;;;;;;;;;5034412;28;20406;-81
2023/11/07 05:35:58;;;;;;;2.22;2.03;;;;;;;;;;5034230;28;20450;-80
2023/11/07 05:38:24;;;;;;;2.03;1.92;;;;;;;;;;5034202;28;20387;-80
2023/11/07 05:40:51;;;;;;;3.00;2.33;;;;;;;;;;5034512;28;20470;-80
2023/11/07 05:43:18;;;;;;;2.35;1.88;;;;;;;;;;5034044;28;20794;-81
2023/11/07 05:45:45;;;;;;;2.78;2.40;;;;;;;;;;5032205;28;20383;-81
2023/11/07 05:48:11;;;;;;;2.90;2.47;;;;;;;;;;5034491;28;20391;-80
2023/11/07 05:50:37;;;;;;;3.13;2.92;;;;;;;;;;5034746;28;20459;-80
2023/11/07 05:53:03;;;;;;;3.30;3.10;;;;;;;;;;5034850;28;20443;-81
2023/11/07 05:55:29;;;;;;;3.10;2.90;;;;;;;;;;5034469;28;20820;-81
2023/11/07 05:57:55;;;;;;;2.63;2.42;;;;;;;;;;5034990;28;20714;-80
2023/11/07 06:00:21;;;;;;;2.47;2.27;;;;;;;;;;5034701;28;20387;-81
2023/11/07 06:02:47;;;;;;;2.00;1.90;;;;;;;;;;5034821;28;20862;-81
2023/11/07 06:05:13;;;;;;;2.00;1.90;;;;;;;;;;5035164;28;20692;-80
2023/11/07 06:07:39;;;;;;;1.80;1.70;;;;;;;;;;5033095;28;21111;-80
2023/11/07 06:10:07;;;;;;;2.10;2.00;;;;;;;;;;5028034;28;20473;-81
2023/11/07 06:12:33;;;;;;;1.80;1.70;;;;;;;;;;5034867;28;20468;-81
2023/11/07 06:14:59;;;;;;;1.90;1.80;;;;;;;;;;5035163;28;20379;-81
2023/11/07 06:17:25;;;;;;;2.00;1.90;;;;;;;;;;5036007;28;20391;-81
2023/11/07 06:19:51;;;;;;;1.83;1.73;;;;;;;;;;5020714;28;20467;-81
2023/11/07 06:22:17;;;;;;;1.85;1.75;;;;;;;;;;5016258;28;20384;-80
2023/11/07 06:24:44;;;;;;;2.20;2.00;;;;;;;;;;5034407;28;20394;-81
2023/11/07 06:27:10;;;;;;;1.70;1.60;;;;;;;;;;5035383;28;20862;-80
2023/11/07 06:29:41;;;;;;;1.70;1.60;;;;;;;;;;5035971;28;20383;-81
2023/11/07 06:32:09;;;;;;;1.63;1.52;;;;;;;;;;5035445;28;20482;-82
2023/11/07 06:34:35;;;;;;;2.25;1.60;;;;;;;;;;5037566;28;20845;-81
2023/11/07 06:37:03;;;;;;;3.55;3.25;;;;;;;;;;5039632;28;20390;-81
2023/11/07 06:39:29;;;;;;;2.08;1.98;;;;;;;;;;5038118;28;20458;-81
2023/11/07 06:41:55;;;;;;;30.95;18.52;;;;;;;;;;5036752;28;20383;-81
2023/11/07 06:44:21;;;;;;;16.08;12.60;;;;;;;;;;5039827;28;20390;-80
2023/11/07 06:46:51;;;;;;;12.52;9.50;;;;;;;;;;5039174;28;20390;-80
2023/11/07 06:49:17;;;;;;;4.35;3.95;;;;;;;;;;5038982;28;20382;-80
2023/11/07 06:51:43;;;;;;;3.60;2.67;;;;;;;;;;5038860;28;20448;-80
2023/11/07 06:54:09;;;;;;;3.60;3.30;;;;;;;;;;5039351;28;20441;-80
2023/11/07 06:56:35;;;;;;;3.72;3.42;;;;;;;;;;5039720;28;20825;-81
2023/11/07 06:59:01;;;;;;;3.70;3.40;;;;;;;;;;5039654;28;20386;-80
2023/11/07 07:01:28;;;;;;;3.28;3.08;;;;;;;;;;5039674;28;20379;-81
2023/11/07 07:03:54;;;;;;;3.00;2.80;;;;;;;;;;5039965;28;20469;-82
2023/11/07 07:06:23;;;;;;;3.42;3.13;;;;;;;;;;5039482;28;20387;-82
2023/11/07 07:08:52;;;;;;;3.77;3.47;;;;;;;;;;5040904;28;20468;-83
2023/11/07 07:11:20;;;;;;;4.03;3.72;;;;;;;;;;5040050;28;20466;-82
2023/11/07 07:13:46;;;;;;;4.55;4.15;;;;;;;;;;5038639;28;20813;-81
2023/11/07 07:16:13;;;;;;;5.25;4.80;;;;;;;;;;5039127;28;20880;-81
2023/11/07 07:18:39;;;;;;;5.10;4.70;;;;;;;;;;5039022;28;20446;-82
2023/11/07 07:21:07;;;;;;;4.38;4.07;;;;;;;;;;5038960;28;20390;-82
2023/11/07 07:23:36;;;;;;;3.85;3.55;;;;;;;;;;5039189;28;20387;-82
2023/11/07 07:26:08;;;;;;;4.47;4.10;;;;;;;;;;5039084;28;20395;-82
2023/11/07 07:28:36;;;;;;;4.60;4.20;;;;;;;;;;5039057;28;20394;-82
2023/11/07 07:31:06;;;;;;;4.65;4.28;;;;;;;;;;5038790;28;20394;-82
2023/11/07 07:33:32;;;;;;;4.80;4.40;;;;;;;;;;5038686;28;20493;-82
2023/11/07 07:36:02;;;;;;;3.97;3.67;;;;;;;;;;5021412;28;20379;-82
2023/11/07 07:38:30;;;;;;;3.60;3.30;;;;;;;;;;5036237;28;20402;-82
2023/11/07 07:40:57;;;;;;;3.30;3.00;;;;;;;;;;5038726;28;20473;-82
2023/11/07 07:43:23;;;;;;;3.15;2.85;;;;;;;;;;5038117;28;20379;-82
2023/11/07 07:45:50;;;;;;;2.85;2.65;;;;;;;;;;5037537;28;20395;-82
2023/11/07 07:48:17;;;;;;;2.90;2.70;;;;;;;;;;5037936;28;20383;-82
2023/11/07 07:50:46;;;;;;;3.00;2.80;;;;;;;;;;5037799;28;20418;-82
2023/11/07 07:53:15;;;;;;;4.35;4.05;;;;;;;;;;5038518;28;20794;-82
2023/11/07 07:55:43;;;;;;;4.35;3.95;;;;;;;;;;5037981;28;20460;-82
2023/11/07 07:58:09;;;;;;;3.92;3.63;;;;;;;;;;5037954;28;20383;-81
2023/11/07 08:00:37;;;;;;;3.13;2.83;;;;;;;;;;5038298;28;20407;-82
2023/11/07 08:03:06;;;;;;;3.33;3.13;;;;;;;;;;5038304;28;20375;-82
2023/11/07 08:05:38;;;;;;;3.55;2.90;;;;;;;;;;5038165;28;20426;-83
2023/11/07 08:08:08;;;;;;;3.00;2.80;;;;;;;;;;5039066;28;20437;-83
2023/11/07 08:10:35;;;;;;;2.97;2.78;;;;;;;;;;5038996;28;20455;-82
2023/11/07 08:13:05;;;;;;;3.55;3.25;;;;;;;;;;5037510;28;20410;-82
2023/11/07 08:15:31;;;;;;;3.63;3.33;;;;;;;;;;5038630;28;20398;-82
2023/11/07 08:17:57;;;;;;;3.70;3.40;;;;;;;;;;5038991;28;20386;-83
2023/11/07 08:20:23;;;;;;;4.13;3.72;;;;;;;;;;5038802;28;20470;-83
2023/11/07 08:22:52;;;;;;;3.88;3.67;;;;;;;;;;5038766;28;20394;-83
2023/11/07 08:25:18;;;;;;;4.30;4.00;;;;;;;;;;5038510;28;20410;-83
2023/11/07 08:27:44;;;;;;;3.90;3.60;;;;;;;;;;5038351;28;20717;-82
2023/11/07 08:30:12;;;;;;;3.88;3.58;;;;;;;;;;5039439;28;20388;-83
2023/11/07 08:32:42;;;;;;;3.90;3.60;;;;;;;;;;5038988;28;20529;-83
2023/11/07 08:35:10;;;;;;;3.70;3.40;;;;;;;;;;5039361;28;20399;-83
2023/11/07 08:37:36;;;;;;;4.30;4.00;;;;;;;;;;5040253;28;20497;-83
2023/11/07 08:40:05;;;;;;;4.30;3.90;;;;;;;;;;5040575;28;20384;-82
2023/11/07 08:42:31;;;;;;;3.90;3.60;;;;;;;;;;5036628;28;20394;-82
2023/11/07 08:44:59;;;;;;;3.90;3.55;;;;;;;;;;5034169;28;20448;-82
2023/11/07 08:47:25;;;;;;;4.73;4.33;;;;;;;;;;5034253;28;20391;-82
2023/11/07 08:49:55;;;;;;;4.00;3.60;;;;;;;;;;5034144;28;20417;-82
2023/11/07 08:52:21;;;;;;;6.10;3.88;;;;;;;;;;5028212;28;20420;-82
2023/11/07 08:54:47;;;;;;;4.53;4.10;;;;;;;;;;5015284;28;20400;-82
2023/11/07 08:57:13;;;;;;;4.00;3.70;;;;;;;;;;5014236;28;20892;-82
2023/11/07 08:59:44;;;;;;;3.70;3.38;;;;;;;;;;5015108;28;20409;-82
2023/11/07 09:02:10;;;;;;;3.65;3.35;;;;;;;;;;5015991;28;20525;-82
2023/11/07 09:04:37;;;;;;;3.28;2.97;;;;;;;;;;5015184;28;20397;-82
2023/11/07 09:07:03;;;;;;;5.85;3.05;;;;;;;;;;5015182;28;20715;-82
2023/11/07 09:09:30;;;;;;;2.65;2.45;;;;;;;;;;4998378;28;20896;-82
2023/11/07 09:11:56;;;;;;;2.65;2.40;;;;;;;;;;5022031;28;20425;-82
2023/11/07 09:14:22;;;;;;;3.13;2.40;;;;;;;;;;5035077;28;20474;-82
2023/11/07 09:16:48;;;;;;;2.42;2.22;;;;;;;;;;5035257;28;20395;-82
2023/11/07 09:19:14;;;;;;;3.13;2.30;;;;;;;;;;5035301;28;20423;-82
2023/11/07 09:21:42;;;;;;;3.97;2.58;;;;;;;;;;5035430;28;20387;-82
2023/11/07 09:24:09;;;;;;;2.65;2.25;;;;;;;;;;5035058;28;20414;-82
2023/11/07 09:26:35;;;;;;;3.13;2.33;;;;;;;;;;5035587;28;20395;-82
2023/11/07 09:29:01;;;;;;;2.20;2.00;;;;;;;;;;5035876;28;20543;-83
2023/11/07 09:31:28;;;;;;;2.60;1.95;;;;;;;;;;5035138;28;20923;-82
2023/11/07 09:33:54;;;;;;;2.50;2.10;;;;;;;;;;5035039;28;20406;-82
2023/11/07 09:36:20;;;;;;;2.35;1.67;;;;;;;;;;5035289;28;20387;-82
2023/11/07 09:38:46;;;;;;;2.33;1.95;;;;;;;;;;5024652;28;20407;-82
2023/11/07 09:41:12;;;;;;;3.25;1.60;;;;;;;;;;5035524;28;20383;-82
2023/11/07 09:43:38;;;;;;;3.35;1.90;;;;;;;;;;5035560;28;20836;-81
2023/11/07 09:46:06;;;;;;;1.70;1.38;;;;;;;;;;5023769;28;20443;-82
2023/11/07 09:48:32;;;;;;;2.55;2.00;;;;;;;;;;5032759;28;20475;-82
2023/11/07 09:50:58;;;;;;;2.40;1.60;;;;;;;;;;5035284;28;20422;-81
2023/11/07 09:53:24;;;;;;;1.73;1.60;;;;;;;;;;5031632;28;20743;-82
2023/11/07 09:55:52;;;;;;;2.00;1.63;;;;;;;;;;5016300;28;20421;-82
2023/11/07 09:58:25;;;;;;;2.65;1.50;;;;;;;;;;5016526;28;20447;-81
2023/11/07 10:00:52;;;;;;;2.05;1.75;;;;;;;;;;5030302;28;20724;-82
2023/11/07 10:03:18;;;;;;;2.15;1.60;;;;;;;;;;5030317;28;20424;-81
2023/11/07 10:05:48;;;;;;;1.67;1.58;;;;;;;;;;5015028;28;20391;-81
2023/11/07 10:08:14;;;;;;;2.05;1.40;;;;;;;;;;5015373;28;20727;-81
2023/11/07 10:10:40;;;;;;;1.58;1.42;;;;;;;;;;5035441;28;20406;-81
2023/11/07 10:13:07;;;;;;;1.47;1.30;;;;;;;;;;5036116;28;20430;-81
2023/11/07 10:15:33;;;;;;;2.83;1.60;;;;;;;;;;5035415;28;20444;-81
2023/11/07 10:18:00;;;;;;;1.90;1.35;;;;;;;;;;5027976;28;20387;-82
2023/11/07 10:20:28;;;;;;;1.77;1.50;;;;;;;;;;5032043;28;20391;-81
2023/11/07 10:22:57;;;;;;;1.50;1.20;;;;;;;;;;5020683;28;20731;-81
2023/11/07 10:25:33;;;;;;;1.70;1.50;;;;;;;;;;5019746;28;20381;-81
2023/11/07 10:28:01;;;;;;;1.92;1.10;;;;;;;;;;5021370;28;20397;-81
2023/11/07 10:30:36;;;;;;;2.60;1.20;;;;;;;;;;5036220;28;20394;-81
2023/11/07 10:33:06;;;;;;;2.33;1.10;;;;;;;;;;5038008;28;20419;-81
2023/11/07 10:35:33;;;;;;;2.35;1.00;;;;;;;;;;5038256;28;20409;-82
2023/11/07 10:37:59;;;;;;;1.40;1.10;;;;;;;;;;5037892;28;20383;-82
2023/11/07 10:40:25;;;;;;;1.40;1.13;;;;;;;;;;5038063;28;20390;-81
2023/11/07 10:42:51;;;;;;;1.23;0.85;;;;;;;;;;5035943;28;20396;-80
2023/11/07 10:45:17;;;;;;;1.20;0.73;;;;;;;;;;5018353;28;20389;-80
2023/11/07 10:47:44;;;;;;;1.13;0.77;;;;;;;;;;5028340;28;20405;-81
2023/11/07 10:50:16;;;;;;;0.90;0.70;;;;;;;;;;5036904;28;20938;-81
2023/11/07 10:52:44;;;;;;;1.08;0.82;;;;;;;;;;5030820;28;20944;-81
2023/11/07 10:55:10;;;;;;;0.98;0.80;;;;;;;;;;5040381;28;20402;-81
2023/11/07 10:57:37;;;;;;;1.60;0.60;;;;;;;;;;5041211;28;20901;-81
2023/11/07 11:00:20;;;;;;;1.27;0.70;;;;;;;;;;5037209;28;20385;-81
2023/11/07 11:02:49;;;;;;;2.77;1.30;;;;;;;;;;5039765;28;21055;-81
2023/11/07 11:05:16;;;;;;;1.10;0.90;;;;;;;;;;5025316;28;20392;-81
2023/11/07 11:07:50;;;;;;;0.73;0.73;;;;;;;;;;5038543;28;20903;-81
2023/11/07 11:10:20;;;;;;;1.10;0.70;;;;;;;;;;5034837;28;20504;-80
2023/11/07 11:12:47;;;;;;;0.98;0.60;;;;;;;;;;5017441;28;20421;-80
2023/11/07 11:15:13;;;;;;;1.00;0.60;;;;;;;;;;5030407;28;20457;-80
2023/11/07 11:18:00;;;;;;;0.73;0.60;;;;;;;;;;5034469;28;20391;-80
2023/11/07 11:20:38;;;;;;;0.80;0.60;;;;;;;;;;5035470;28;20556;-80
2023/11/07 11:23:12;;;;;;;1.77;0.80;;;;;;;;;;5019741;28;20749;-80
2023/11/07 11:25:56;;;;;;;1.20;0.80;;;;;;;;;;5038169;28;20402;-80
2023/11/07 11:28:38;;;;;;;1.35;0.70;;;;;;;;;;5038057;28;20774;-80
2023/11/07 11:31:05;;;;;;;1.60;0.70;;;;;;;;;;5031560;28;20765;-80
2023/11/07 11:33:31;;;;;;;1.95;0.90;;;;;;;;;;5033936;28;20431;-80
2023/11/07 11:35:57;;;;;;;1.45;0.68;;;;;;;;;;5018589;28;20881;-80
2023/11/07 11:38:38;;;;;;;1.17;0.60;;;;;;;;;;5027173;28;20449;-80
2023/11/07 11:41:06;;;;;;;1.03;0.60;;;;;;;;;;5036967;28;20733;-80
2023/11/07 11:43:33;;;;;;;0.80;0.63;;;;;;;;;;5037927;28;20464;-80
2023/11/07 11:46:13;;;;;;;0.88;0.60;;;;;;;;;;5035199;28;20452;-81
2023/11/07 11:48:55;;;;;;;2.00;0.82;;;;;;;;;;5036495;28;20386;-80
2023/11/07 11:51:39;;;;;;;0.90;0.67;;;;;;;;;;5014145;28;20516;-80
2023/11/07 11:54:06;;;;;;;1.30;0.80;;;;;;;;;;5029259;28;20406;-80
2023/11/07 11:56:35;;;;;;;1.53;0.90;;;;;;;;;;5036560;28;20399;-80
2023/11/07 11:59:03;;;;;;;0.90;0.75;;;;;;;;;;5037268;28;20757;-80
2023/11/07 12:01:32;;;;;;;1.60;1.00;;;;;;;;;;5037011;28;20438;-80
2023/11/07 12:03:59;;;;;;;0.80;0.80;;;;;;;;;;5037032;28;20709;-80
2023/11/07 12:06:25;;;;;;;2.77;0.90;;;;;;;;;;5036831;28;20704;-80
2023/11/07 12:08:52;;;;;;;1.20;0.80;;;;;;;;;;5030453;28;20846;-80
2023/11/07 12:11:18;;;;;;;1.20;0.90;;;;;;;;;;5036790;28;20383;-80
2023/11/07 12:13:44;;;;;;;1.73;1.10;;;;;;;;;;5037905;28;20391;-80
2023/11/07 12:16:15;;;;;;;1.77;0.98;;;;;;;;;;5041913;28;20395;-80
2023/11/07 12:18:42;;;;;;;1.88;1.60;;;;;;;;;;5036876;28;20383;-80
2023/11/07 12:21:11;;;;;;;1.17;0.93;;;;;;;;;;5029990;28;20391;-80
2023/11/07 12:23:37;;;;;;;1.48;1.10;;;;;;;;;;5035300;28;20383;-81
2023/11/07 12:26:04;;;;;;;2.33;1.02;;;;;;;;;;5035450;28;20381;-80
2023/11/07 12:28:30;;;;;;;1.98;0.90;;;;;;;;;;5034763;28;20391;-81
2023/11/07 12:30:56;;;;;;;2.22;0.93;;;;;;;;;;5031993;28;20403;-81
2023/11/07 12:33:22;;;;;;;2.25;1.00;;;;;;;;;;5034759;28;20819;-81
2023/11/07 12:35:54;;;;;;;2.22;1.10;;;;;;;;;;5035179;28;20394;-80
2023/11/07 12:38:20;;;;;;;1.30;1.05;;;;;;;;;;5033604;28;20391;-80
2023/11/07 12:40:47;;;;;;;2.40;0.93;;;;;;;;;;5035200;28;20941;-80
2023/11/07 12:43:15;;;;;;;1.52;0.90;;;;;;;;;;5033019;28;20387;-81
2023/11/07 12:45:42;;;;;;;1.50;1.17;;;;;;;;;;5033005;28;20962;-81
2023/11/07 12:48:15;;;;;;;2.15;1.23;;;;;;;;;;5021497;28;20404;-80
2023/11/07 12:50:43;;;;;;;1.70;1.40;;;;;;;;;;5016501;28;20389;-80
2023/11/07 12:53:10;;;;;;;2.38;1.02;;;;;;;;;;5016500;28;20736;-81
2023/11/07 12:55:38;;;;;;;1.73;1.30;;;;;;;;;;5024530;28;20386;-81
2023/11/07 12:58:05;;;;;;;1.23;0.93;;;;;;;;;;5035712;28;20383;-80
2023/11/07 13:00:51;;;;;;;2.08;1.20;;;;;;;;;;5031993;28;20405;-80
2023/11/07 13:03:22;;;;;;;2.07;1.63;;;;;;;;;;5019490;28;20404;-80
2023/11/07 13:05:55;;;;;;;2.90;2.70;;;;;;;;;;5019441;28;20401;-79
2023/11/07 13:08:28;;;;;;;3.60;3.30;;;;;;;;;;5034152;28;20386;-79
2023/11/07 13:11:06;;;;;;;1.67;1.58;;;;;;;;;;5033864;28;20383;-79
2023/11/07 13:13:32;;;;;;;1.92;1.70;;;;;;;;;;5035070;28;20421;-79
2023/11/07 13:15:58;;;;;;;1.83;1.70;;;;;;;;;;5034998;28;20391;-79
2023/11/07 13:18:24;;;;;;;2.22;1.52;;;;;;;;;;5035176;28;20470;-79
2023/11/07 13:20:50;;;;;;;0.88;0.52;;;;;;;;;;5035908;28;20371;-79
2023/11/07 13:23:16;;;;;;;0.40;0.40;;;;;;;;;;5035405;28;20383;-79
2023/11/07 13:25:46;;;;;;;0.30;0.30;;;;;;;;;;5034781;28;20940;-79
2023/11/07 13:28:12;;;;;;;0.30;0.20;;;;;;;;;;5035081;28;20398;-79
2023/11/07 13:30:38;;;;;;;0.30;0.20;;;;;;;;;;5035015;28;20841;-79
2023/11/07 13:33:04;;;;;;;0.32;0.15;;;;;;;;;;5035091;28;20418;-79
2023/11/07 13:35:37;;;;;;;0.45;0.20;;;;;;;;;;5035636;28;20417;-79
2023/11/07 13:38:03;;;;;;;0.90;0.30;;;;;;;;;;5036138;28;20415;-79
2023/11/07 13:40:29;;;;;;;0.40;0.30;;;;;;;;;;5036137;28;20748;-79
2023/11/07 13:42:55;;;;;;;0.30;0.20;;;;;;;;;;5036258;28;20379;-79
2023/11/07 13:45:22;;;;;;;0.30;0.30;;;;;;;;;;5035705;28;20419;-79
2023/11/07 13:47:48;;;;;;;0.30;0.30;;;;;;;;;;5021261;28;20395;-79
2023/11/07 13:50:14;;;;;;;0.95;0.50;;;;;;;;;;5015625;28;20396;-79
2023/11/07 13:52:41;;;;;;;1.00;0.63;;;;;;;;;;5015726;28;20899;-79
2023/11/07 13:55:07;;;;;;;0.50;0.30;;;;;;;;;;5016017;28;20381;-79
2023/11/07 13:57:33;;;;;;;0.20;0.20;;;;;;;;;;5016274;28;20397;-79
2023/11/07 13:59:59;;;;;;;0.30;0.30;;;;;;;;;;5016194;28;20384;-79
2023/11/07 14:02:26;;;;;;;0.47;0.40;;;;;;;;;;4998426;28;20755;-79
2023/11/07 14:04:52;;;;;;;0.80;0.30;;;;;;;;;;5016682;28;20396;-79
2023/11/07 14:07:18;;;;;;;0.43;0.40;;;;;;;;;;5015942;28;20408;-79
2023/11/07 14:09:44;;;;;;;0.60;0.30;;;;;;;;;;5016403;28;20424;-79
2023/11/07 14:12:10;;;;;;;0.98;0.40;;;;;;;;;;5016412;28;20551;-79
2023/11/07 14:14:36;;;;;;;0.93;0.50;;;;;;;;;;5031422;28;20383;-79
2023/11/07 14:17:02;;;;;;;0.77;0.40;;;;;;;;;;5036299;28;20402;-79
2023/11/07 14:19:28;;;;;;;0.40;0.40;;;;;;;;;;5035746;28;20387;-79
2023/11/07 14:21:55;;;;;;;0.60;0.60;;;;;;;;;;5034905;28;20379;-79
2023/11/07 14:24:21;;;;;;;1.70;0.60;;;;;;;;;;5035067;28;20386;-79
2023/11/07 14:26:47;;;;;;;1.17;0.50;;;;;;;;;;5034200;28;20386;-79
2023/11/07 14:29:13;;;;;;;0.50;0.50;;;;;;;;;;5035199;28;20390;-79
2023/11/07 14:31:42;;;;;;;0.60;0.55;;;;;;;;;;5035718;28;20414;-79
2023/11/07 14:34:08;;;;;;;0.35;0.32;;;;;;;;;;5035372;28;20415;-79
2023/11/07 14:36:34;;;;;;;0.40;0.40;;;;;;;;;;5035679;28;20383;-79
2023/11/07 14:39:02;;;;;;;0.60;0.43;;;;;;;;;;5035803;28;20379;-79
2023/11/07 14:41:29;;;;;;;1.00;0.45;;;;;;;;;;5035090;28;20375;-79
2023/11/07 14:43:56;;;;;;;0.65;0.45;;;;;;;;;;5035579;28;20387;-79